Kingsville, OH (44048)

12:27 PM EDT on August 30, 2015 (GMT -0400)
Ashtabula County | | Change Station
CLOSE
Current Station
Airport
Location: Ashtabula,
Elevation: 922 ft
Nearby Weather Stations

Elev 922 ft 41.78 °N, 80.70 °W | Updated 4 minutes ago

Overcast
Overcast
75 °F
Feels Like 75 °F
N
7
Wind Variable Wind from SW

Today
High -- | Low -- °F
--% Chance of Precip.
Yesterday
High -- | Low -- °F
Precip. -- in
6:46 AM 7:59 PM
Full, 99% visible
Pressure 30.13 in
Visibility 10.0 miles
Clouds Scattered Clouds 1900 ft
Scattered Clouds 2800 ft
Overcast 6000 ft
Dew Point 68 °F
Humidity 79%
Rainfall 0.25 in
Snow Depth Not available.
UV 3 out of 12
Pollen 9.90 out of 12
Air Quality Not available.
Flu Activity Not available.
SPECI KHZY 301623Z AUTO 22006KT 10SM SCT019 SCT028 OVC060 24/20 A3013 RMK AO2 T02390200
Pressure 30.13 in
Visibility 10.0 miles
Clouds Scattered Clouds 1900 ft
Scattered Clouds 2800 ft
Overcast 6000 ft
Dew Point 68 °F
Humidity 79%
Rainfall 0.25 in
Snow Depth Not available.
UV 3 out of 12
Pollen 9.90 out of 12
Air Quality Not available.
Flu Activity Not available.
SPECI KHZY 301623Z AUTO 22006KT 10SM SCT019 SCT028 OVC060 24/20 A3013 RMK AO2 T02390200

10-Day Weather Forecast

×

Almanac

Astronomy

Aug. 30, 2015 Rise Set
Actual Time
Civil Twilight
Nautical Twilight
Astronomical Twilight
Moon
Length of Visible Light
Length of Day
Tomorrow will be .
, % of the Moon is Illuminated

Today's Extremes

State Highs State Lows

Community

WunderPhotos

Upload Photos

1,851,005 photos uploaded!

WunderBlogs® & News

Nearby

Air Quality

  Air Quality AQ Index Pollutant
Not available.

Snow Depth

Station Depth Elevation

Earthquake Activity

City Distance Mag. Time & Date
Minimum magnitude displayed is 2.5.

Coastal Water Temperatures

Place Temperature

Stations

Nearby Weather Stations

Station Location Temp. Windchill Dew Point Humidity Wind Precip. Elev Updated Type